createdAt,value
2022-08-11T00:01:15.883Z,22.90
2022-08-11T00:03:48.869Z,22.70
2022-08-11T00:06:26.899Z,23.80
2022-08-11T00:08:56.028Z,25.60
2022-08-11T00:11:33.910Z,25.20
2022-08-11T00:14:03.228Z,24.80
2022-08-11T00:16:34.009Z,26.40
2022-08-11T00:19:03.066Z,26.40
2022-08-11T00:21:35.486Z,29.80
2022-08-11T00:24:21.208Z,30.30
2022-08-11T00:26:50.718Z,29.40
2022-08-11T00:29:22.730Z,28.40
2022-08-11T00:31:55.714Z,27.60
2022-08-11T00:34:28.651Z,27.00
2022-08-11T00:37:04.477Z,26.50
2022-08-11T00:39:35.480Z,26.10
2022-08-11T00:42:17.123Z,26.50
2022-08-11T00:45:01.885Z,27.60
2022-08-11T00:47:43.961Z,29.40
2022-08-11T00:50:23.802Z,29.80
2022-08-11T00:53:26.081Z,28.80
2022-08-11T00:56:46.050Z,29.70
2022-08-11T00:59:49.574Z,28.40
2022-08-11T01:02:20.795Z,29.20
2022-08-11T01:05:26.697Z,29.60
2022-08-11T01:08:24.519Z,32.00
2022-08-11T01:11:14.248Z,35.80
2022-08-11T01:14:16.124Z,37.60
2022-08-11T01:17:30.573Z,36.80
2022-08-11T01:20:45.516Z,36.00
2022-08-11T01:23:51.815Z,35.80
2022-08-11T01:27:19.592Z,34.50
2022-08-11T01:30:24.775Z,33.50
2022-08-11T01:33:34.841Z,32.60
2022-08-11T01:36:32.964Z,33.70
2022-08-11T01:39:41.081Z,36.20
2022-08-11T01:43:04.374Z,36.00
2022-08-11T01:45:41.016Z,35.30
2022-08-11T01:48:17.370Z,39.30
2022-08-11T01:51:04.600Z,39.70
2022-08-11T01:53:46.737Z,39.90
2022-08-11T01:56:41.381Z,40.30
2022-08-11T01:59:18.355Z,39.20
2022-08-11T02:02:11.522Z,38.90
2022-08-11T02:04:58.268Z,38.70
2022-08-11T02:07:37.325Z,37.50
2022-08-11T02:10:39.378Z,37.10
2022-08-11T02:13:34.089Z,36.80
2022-08-11T02:16:15.667Z,36.60
2022-08-11T02:19:09.802Z,34.70
2022-08-11T02:22:05.004Z,34.20
2022-08-11T02:24:43.380Z,32.80
2022-08-11T02:27:21.987Z,32.70
2022-08-11T02:30:05.196Z,32.00
2022-08-11T02:32:57.782Z,31.40
2022-08-11T02:35:32.954Z,31.30
2022-08-11T02:38:13.341Z,30.70
2022-08-11T02:40:50.063Z,30.70
2022-08-11T02:43:32.095Z,31.10
2022-08-11T02:46:20.054Z,30.60
2022-08-11T02:49:24.824Z,31.30
2022-08-11T02:52:06.294Z,30.70
2022-08-11T02:54:43.521Z,30.50
2022-08-11T02:57:21.950Z,30.20
2022-08-11T02:59:55.362Z,29.80
2022-08-11T03:02:35.000Z,29.70
2022-08-11T03:05:13.876Z,29.30
2022-08-11T03:07:52.881Z,29.50
2022-08-11T03:10:24.831Z,30.10
2022-08-11T03:13:20.181Z,30.80
2022-08-11T03:16:16.875Z,31.40
2022-08-11T03:18:56.267Z,32.10
2022-08-11T03:22:01.389Z,32.10
2022-08-11T03:24:23.448Z,32.70
2022-08-11T03:27:04.745Z,33.10
2022-08-11T03:29:38.772Z,33.10
2022-08-11T03:32:12.467Z,32.00
2022-08-11T03:34:45.612Z,31.70
2022-08-11T03:37:45.535Z,31.50
2022-08-11T03:40:54.652Z,30.70
2022-08-11T03:43:45.732Z,30.80
2022-08-11T03:46:51.132Z,30.70
2022-08-11T03:49:32.281Z,30.50
2022-08-11T03:52:12.799Z,30.20
2022-08-11T03:54:54.562Z,30.10
2022-08-11T03:57:59.578Z,30.10
2022-08-11T04:00:59.899Z,29.90
2022-08-11T04:04:09.303Z,29.60
2022-08-11T04:07:24.226Z,30.30
2022-08-11T04:10:22.078Z,30.70
2022-08-11T04:13:36.447Z,30.40
2022-08-11T04:16:24.504Z,30.30
2022-08-11T04:19:28.418Z,30.20
2022-08-11T04:22:28.906Z,31.40
2022-08-11T04:25:19.439Z,37.80
2022-08-11T04:28:47.941Z,39.90
2022-08-11T04:31:55.109Z,38.20
2022-08-11T04:34:50.107Z,37.90
2022-08-11T04:37:39.174Z,39.60
2022-08-11T04:40:55.765Z,40.30
2022-08-11T04:44:04.622Z,40.10
2022-08-11T04:47:09.028Z,40.30
2022-08-11T04:50:19.188Z,41.10
2022-08-11T04:53:46.051Z,40.30
2022-08-11T04:56:41.662Z,40.70
2022-08-11T05:00:00.993Z,42.30
2022-08-11T05:03:04.966Z,44.10
2022-08-11T05:05:56.287Z,45.20
2022-08-11T05:09:10.626Z,46.20
2022-08-11T05:12:20.718Z,45.60
2022-08-11T05:15:09.756Z,45.70
2022-08-11T05:17:59.890Z,46.60
2022-08-11T05:21:06.658Z,47.40
2022-08-11T05:23:58.376Z,48.30
2022-08-11T05:26:49.711Z,48.30
2022-08-11T05:29:58.967Z,47.60
2022-08-11T05:32:58.007Z,47.40
2022-08-11T05:36:00.650Z,47.20
2022-08-11T05:38:43.532Z,48.30
2022-08-11T05:41:30.999Z,48.40
2022-08-11T05:44:22.357Z,49.60
2022-08-11T05:47:09.194Z,50.20
2022-08-11T05:49:56.704Z,49.50
2022-08-11T05:52:56.707Z,49.80
2022-08-11T05:56:02.517Z,49.70
2022-08-11T05:58:41.739Z,49.30
2022-08-11T06:01:13.293Z,49.40
2022-08-11T06:04:03.751Z,49.20
2022-08-11T06:06:33.391Z,48.90
2022-08-11T06:09:02.322Z,48.80
2022-08-11T06:11:44.080Z,48.10
2022-08-11T06:14:13.723Z,48.30
2022-08-11T06:16:44.619Z,48.10
2022-08-11T06:19:14.275Z,48.50
2022-08-11T06:21:47.552Z,47.70
2022-08-11T06:24:17.064Z,47.10
2022-08-11T06:27:11.387Z,47.20
2022-08-11T06:29:47.672Z,47.20
2022-08-11T06:32:18.751Z,46.40
2022-08-11T06:35:02.962Z,46.10
2022-08-11T06:37:45.507Z,45.80
2022-08-11T06:40:27.396Z,45.90
2022-08-11T06:43:00.203Z,45.30
2022-08-11T06:45:35.423Z,45.30
2022-08-11T06:48:10.232Z,45.20
2022-08-11T06:50:56.266Z,44.70
2022-08-11T06:53:25.254Z,45.40
2022-08-11T06:56:13.297Z,46.10
2022-08-11T06:59:00.475Z,44.40
2022-08-11T07:01:46.713Z,44.00
2022-08-11T07:04:30.297Z,43.40
2022-08-11T07:07:40.593Z,42.90
2022-08-11T07:10:44.542Z,42.70
2022-08-11T07:13:44.245Z,41.40
2022-08-11T07:16:18.310Z,41.20
2022-08-11T07:19:11.413Z,41.20
2022-08-11T07:22:06.219Z,40.40
2022-08-11T07:24:59.359Z,40.40
2022-08-11T07:27:54.595Z,39.80
2022-08-11T07:30:23.260Z,39.40
2022-08-11T07:32:53.825Z,37.60
2022-08-11T07:35:27.778Z,37.60
2022-08-11T07:38:03.492Z,37.70
2022-08-11T07:40:35.245Z,36.30
2022-08-11T07:43:05.703Z,35.70
2022-08-11T07:45:52.238Z,35.00
2022-08-11T07:48:39.121Z,36.20
2022-08-11T07:51:25.481Z,34.80
2022-08-11T07:54:03.053Z,34.40
2022-08-11T07:56:55.497Z,31.60
2022-08-11T07:59:59.895Z,31.30
2022-08-11T08:02:58.694Z,29.60
2022-08-11T08:05:45.269Z,30.40
2022-08-11T08:08:33.735Z,31.20
2022-08-11T08:11:27.057Z,30.90
2022-08-11T08:14:14.078Z,29.20
2022-08-11T08:17:01.405Z,29.30
2022-08-11T08:19:30.489Z,29.90
2022-08-11T08:22:06.154Z,29.80
2022-08-11T08:24:48.469Z,28.20
2022-08-11T08:27:18.721Z,28.40
2022-08-11T08:30:05.260Z,28.30
2022-08-11T08:32:35.162Z,29.80
2022-08-11T08:35:06.016Z,26.30
2022-08-11T08:37:46.989Z,25.70
2022-08-11T08:40:16.879Z,25.60
2022-08-11T08:42:53.799Z,22.20
2022-08-11T08:45:22.734Z,19.50
2022-08-11T08:47:59.598Z,19.70
2022-08-11T08:50:51.941Z,19.10
2022-08-11T08:53:24.355Z,19.90
2022-08-11T08:55:56.827Z,18.40
2022-08-11T08:58:27.128Z,18.80
2022-08-11T09:00:57.759Z,17.30
2022-08-11T09:04:06.660Z,17.20
2022-08-11T09:06:17.587Z,16.90
2022-08-11T09:08:46.351Z,15.90
2022-08-11T09:11:35.565Z,15.50
2022-08-11T09:14:10.310Z,17.00
2022-08-11T09:16:41.672Z,16.30
2022-08-11T09:19:10.283Z,15.50
2022-08-11T09:21:49.247Z,16.20
2022-08-11T09:24:36.546Z,15.60
2022-08-11T09:27:08.027Z,15.80
2022-08-11T09:29:39.772Z,15.80
2022-08-11T09:32:09.139Z,15.30
2022-08-11T09:34:39.995Z,15.40
2022-08-11T09:37:53.653Z,14.90
2022-08-11T09:40:32.579Z,15.20
2022-08-11T09:43:22.053Z,13.80
2022-08-11T09:45:53.678Z,14.70
2022-08-11T09:48:23.084Z,13.90
2022-08-11T09:50:54.431Z,15.20
2022-08-11T09:53:36.826Z,15.10
2022-08-11T09:56:30.509Z,13.60
2022-08-11T09:58:59.892Z,14.40
2022-08-11T10:01:35.791Z,13.60
2022-08-11T10:04:10.072Z,14.40
2022-08-11T10:06:58.154Z,13.00
2022-08-11T10:09:27.615Z,13.00
2022-08-11T10:11:59.418Z,14.10
2022-08-11T10:14:48.483Z,12.80
2022-08-11T10:17:21.884Z,11.30
2022-08-11T10:20:05.232Z,12.50
2022-08-11T10:22:53.020Z,12.40
2022-08-11T10:25:40.181Z,13.90
2022-08-11T10:28:28.748Z,12.80
2022-08-11T10:31:17.027Z,12.50
2022-08-11T10:34:04.438Z,12.00
2022-08-11T10:36:34.777Z,12.40
2022-08-11T10:39:05.510Z,12.00
2022-08-11T10:42:07.297Z,10.70
2022-08-11T10:44:40.196Z,12.50
2022-08-11T10:47:38.959Z,12.40
2022-08-11T10:50:33.107Z,12.30
2022-08-11T10:53:20.287Z,11.00
2022-08-11T10:56:07.039Z,11.40
2022-08-11T10:58:47.727Z,11.40
2022-08-11T11:01:17.843Z,9.40
2022-08-11T11:03:47.700Z,10.60
2022-08-11T11:06:28.406Z,10.80
2022-08-11T11:09:04.706Z,9.50
2022-08-11T11:11:56.025Z,9.50
2022-08-11T11:14:50.838Z,10.40
2022-08-11T11:17:47.509Z,10.40
2022-08-11T11:20:36.587Z,10.00
2022-08-11T11:23:13.730Z,10.00
2022-08-11T11:26:17.011Z,10.20
2022-08-11T11:29:38.143Z,12.10
2022-08-11T11:32:21.322Z,10.50
2022-08-11T11:35:28.200Z,10.80
2022-08-11T11:38:05.196Z,11.30
2022-08-11T11:40:37.512Z,11.00
2022-08-11T11:43:07.015Z,10.30
2022-08-11T11:45:35.991Z,9.80
2022-08-11T11:48:05.126Z,9.60
2022-08-11T11:50:36.028Z,11.40
2022-08-11T11:53:08.221Z,9.50
2022-08-11T11:55:38.467Z,10.60
2022-08-11T11:58:24.987Z,10.00
2022-08-11T12:01:12.030Z,10.10
2022-08-11T12:03:41.922Z,10.70
2022-08-11T12:06:12.219Z,10.10
2022-08-11T12:08:41.147Z,10.40
2022-08-11T12:11:30.502Z,10.10
2022-08-11T12:14:03.702Z,10.90
2022-08-11T12:16:40.684Z,10.20
2022-08-11T12:19:12.950Z,9.20
2022-08-11T12:22:04.077Z,8.80
2022-08-11T12:24:51.430Z,7.90
2022-08-11T12:27:24.914Z,7.20
2022-08-11T12:29:57.273Z,8.00
2022-08-11T12:32:29.051Z,9.10
2022-08-11T12:34:58.274Z,9.10
2022-08-11T12:37:33.122Z,10.20
2022-08-11T12:40:49.542Z,9.90
2022-08-11T12:43:37.827Z,10.00
2022-08-11T12:46:09.673Z,9.70
2022-08-11T12:49:02.736Z,9.90
2022-08-11T12:52:12.551Z,10.20
2022-08-11T12:54:52.235Z,8.10
2022-08-11T12:57:46.823Z,9.20
2022-08-11T13:00:35.851Z,9.40
2022-08-11T13:03:24.488Z,10.60
2022-08-11T13:05:55.436Z,8.80
2022-08-11T13:08:25.950Z,8.40
2022-08-11T13:11:12.970Z,8.70
2022-08-11T13:13:54.989Z,8.70
2022-08-11T13:16:30.507Z,8.10
2022-08-11T13:19:01.365Z,8.60
2022-08-11T13:21:30.910Z,7.90
2022-08-11T13:24:03.512Z,7.60
2022-08-11T13:26:47.507Z,9.00
2022-08-11T13:29:24.253Z,7.80
2022-08-11T13:31:56.975Z,8.10
2022-08-11T13:34:28.086Z,8.20
2022-08-11T13:37:00.168Z,8.00
2022-08-11T13:39:31.402Z,8.00
2022-08-11T13:42:02.779Z,8.20
2022-08-11T13:44:34.341Z,8.50
2022-08-11T13:47:06.176Z,10.60
2022-08-11T13:49:55.903Z,8.90
2022-08-11T13:52:24.735Z,7.30
2022-08-11T13:54:53.553Z,9.00
2022-08-11T13:58:09.172Z,7.20
2022-08-11T14:00:25.055Z,8.40
2022-08-11T14:02:59.359Z,6.60
2022-08-11T14:05:30.495Z,7.40
2022-08-11T14:08:02.120Z,8.10
2022-08-11T14:10:33.313Z,6.40
2022-08-11T14:13:21.796Z,7.60
2022-08-11T14:15:52.208Z,7.50
2022-08-11T14:18:24.258Z,6.40
2022-08-11T14:21:13.770Z,6.20
2022-08-11T14:23:44.980Z,6.50
2022-08-11T14:26:27.777Z,6.80
2022-08-11T14:28:59.323Z,8.40
2022-08-11T14:31:29.972Z,8.30
2022-08-11T14:34:03.797Z,6.70
2022-08-11T14:36:36.511Z,8.60
2022-08-11T14:39:09.112Z,8.20
2022-08-11T14:42:11.845Z,6.90
2022-08-11T14:45:01.986Z,9.00
2022-08-11T14:47:32.680Z,8.50
2022-08-11T14:50:11.813Z,6.80
2022-08-11T14:52:45.919Z,7.70
2022-08-11T14:55:32.473Z,6.60
2022-08-11T14:58:02.980Z,7.10
2022-08-11T15:00:34.402Z,5.60
2022-08-11T15:03:11.314Z,7.50
2022-08-11T15:05:57.215Z,7.10
2022-08-11T15:08:49.013Z,7.30
2022-08-11T15:11:36.940Z,6.80
2022-08-11T15:14:08.193Z,7.70
2022-08-11T15:16:55.211Z,8.00
2022-08-11T15:19:36.688Z,6.30
2022-08-11T15:22:29.222Z,6.30
2022-08-11T15:24:59.844Z,7.50
2022-08-11T15:27:49.802Z,7.30
2022-08-11T15:30:35.797Z,7.20
2022-08-11T15:33:27.919Z,6.30
2022-08-11T15:36:15.256Z,6.20
2022-08-11T15:38:55.403Z,6.50
2022-08-11T15:41:46.447Z,5.70
2022-08-11T15:45:08.849Z,7.00
2022-08-11T15:47:42.281Z,7.70
2022-08-11T15:50:16.193Z,6.70
2022-08-11T15:52:54.560Z,7.40
2022-08-11T15:55:26.006Z,7.30
2022-08-11T15:58:14.376Z,7.50
2022-08-11T16:01:04.318Z,7.50
2022-08-11T16:04:07.860Z,7.00
2022-08-11T16:06:47.879Z,6.90
2022-08-11T16:09:23.441Z,7.30
2022-08-11T16:11:55.840Z,6.90
2022-08-11T16:14:43.113Z,7.50
2022-08-11T16:17:13.288Z,7.50
2022-08-11T16:19:44.079Z,7.80
2022-08-11T16:22:13.935Z,6.70
2022-08-11T16:27:02.605Z,6.10
2022-08-11T16:27:39.839Z,8.00
2022-08-11T16:30:09.249Z,7.80
2022-08-11T16:32:41.143Z,7.50
2022-08-11T16:35:30.830Z,7.90
2022-08-11T16:38:17.805Z,7.90
2022-08-11T16:40:48.325Z,7.70
2022-08-11T16:43:38.400Z,8.20
2022-08-11T16:46:26.541Z,8.20
2022-08-11T16:48:56.337Z,7.60
2022-08-11T16:51:24.818Z,8.20
2022-08-11T16:54:05.337Z,7.10
2022-08-11T16:56:38.779Z,7.00
2022-08-11T16:59:15.600Z,7.00
2022-08-11T17:01:47.985Z,7.30
2022-08-11T17:04:39.505Z,8.10
2022-08-11T17:07:42.415Z,7.30
2022-08-11T17:10:52.077Z,8.00
2022-08-11T17:13:29.360Z,7.70
2022-08-11T17:16:09.421Z,7.60
2022-08-11T17:18:44.379Z,7.90
2022-08-11T17:21:21.866Z,7.80
2022-08-11T17:23:55.444Z,7.80
2022-08-11T17:26:49.213Z,7.80
2022-08-11T17:29:21.666Z,7.40
2022-08-11T17:32:09.859Z,7.60
2022-08-11T17:34:57.646Z,8.30
2022-08-11T17:37:28.243Z,8.10
2022-08-11T17:39:57.780Z,8.10
2022-08-11T17:42:45.988Z,8.20
2022-08-11T17:45:32.327Z,7.80
2022-08-11T17:48:20.588Z,7.80
2022-08-11T17:50:50.603Z,8.70
2022-08-11T17:53:37.056Z,8.40
2022-08-11T17:56:25.892Z,8.10
2022-08-11T17:59:13.343Z,8.40
2022-08-11T18:01:44.559Z,8.80
2022-08-11T18:04:16.004Z,8.70
2022-08-11T18:06:45.635Z,9.00
2022-08-11T18:09:34.516Z,9.20
2022-08-11T18:12:21.980Z,8.90
2022-08-11T18:15:10.568Z,9.40
2022-08-11T18:17:56.587Z,9.40
2022-08-11T18:20:44.567Z,8.90
2022-08-11T18:23:40.607Z,9.60
2022-08-11T18:26:38.085Z,9.40
2022-08-11T18:29:26.347Z,9.40
2022-08-11T18:32:22.169Z,9.40
2022-08-11T18:35:13.819Z,9.40
2022-08-11T18:38:05.525Z,9.50
2022-08-11T18:40:54.198Z,9.70
2022-08-11T18:43:42.936Z,9.90
2022-08-11T18:46:31.351Z,10.10
2022-08-11T18:49:22.569Z,10.40
2022-08-11T18:52:12.285Z,10.60
2022-08-11T18:55:01.889Z,10.40
2022-08-11T18:57:53.863Z,10.70
2022-08-11T19:00:41.959Z,10.70
2022-08-11T19:03:31.040Z,10.40
2022-08-11T19:06:38.779Z,10.70
2022-08-11T19:09:28.666Z,10.70
2022-08-11T19:12:17.489Z,10.80
2022-08-11T19:15:04.644Z,10.90
2022-08-11T19:17:53.575Z,11.00
2022-08-11T19:20:43.466Z,11.30
2022-08-11T19:23:33.657Z,11.70
2022-08-11T19:26:21.448Z,11.60
2022-08-11T19:30:07.122Z,11.70
2022-08-11T19:32:18.424Z,11.50
2022-08-11T19:35:06.018Z,11.80
2022-08-11T19:37:53.900Z,11.50
2022-08-11T19:40:40.487Z,11.80
2022-08-11T19:43:28.446Z,12.00
2022-08-11T19:46:18.103Z,12.20
2022-08-11T19:49:06.349Z,12.30
2022-08-11T19:51:54.624Z,12.50
2022-08-11T19:54:43.161Z,12.70
2022-08-11T19:57:32.540Z,12.70
2022-08-11T20:00:24.361Z,13.00
2022-08-11T20:03:17.968Z,13.10
2022-08-11T20:06:05.823Z,13.50
2022-08-11T20:08:57.800Z,13.80
2022-08-11T20:11:45.660Z,13.80
2022-08-11T20:14:33.275Z,13.80
2022-08-11T20:17:21.019Z,13.80
2022-08-11T20:20:09.136Z,14.10
2022-08-11T20:22:55.849Z,14.10
2022-08-11T20:25:43.201Z,14.30
2022-08-11T20:28:31.765Z,14.50
2022-08-11T20:31:17.349Z,14.60
2022-08-11T20:34:04.413Z,14.70
2022-08-11T20:36:55.003Z,14.70
2022-08-11T20:39:43.375Z,15.00
2022-08-11T20:42:39.977Z,15.20
2022-08-11T20:45:28.422Z,15.20
2022-08-11T20:48:15.549Z,15.50
2022-08-11T20:51:07.227Z,15.60
2022-08-11T20:54:05.440Z,16.10
2022-08-11T20:56:54.180Z,16.00
2022-08-11T20:59:43.686Z,16.20
2022-08-11T21:02:45.616Z,15.80
2022-08-11T21:06:09.624Z,15.60
2022-08-11T21:08:48.499Z,16.00
2022-08-11T21:11:36.060Z,16.40
2022-08-11T21:14:24.079Z,16.50
2022-08-11T21:17:27.811Z,16.40
2022-08-11T21:20:21.042Z,16.40
2022-08-11T21:23:20.023Z,16.60
2022-08-11T21:26:14.244Z,16.80
2022-08-11T21:29:07.136Z,17.00
2022-08-11T21:31:53.802Z,17.00
2022-08-11T21:34:42.548Z,17.10
2022-08-11T21:37:31.014Z,16.60
2022-08-11T21:40:19.287Z,17.00
2022-08-11T21:43:06.996Z,19.00
2022-08-11T21:45:56.434Z,19.20
2022-08-11T21:48:44.410Z,19.50
2022-08-11T21:51:30.769Z,18.70
2022-08-11T21:54:18.350Z,18.80
2022-08-11T21:57:05.620Z,19.10
2022-08-11T22:00:01.217Z,19.00
2022-08-11T22:02:53.425Z,19.90
2022-08-11T22:05:40.580Z,19.60
2022-08-11T22:08:27.512Z,19.60
2022-08-11T22:11:13.427Z,19.80
2022-08-11T22:14:01.283Z,19.90
2022-08-11T22:16:53.894Z,20.00
2022-08-11T22:19:42.483Z,20.00
2022-08-11T22:22:31.609Z,20.30
2022-08-11T22:25:18.648Z,21.40
2022-08-11T22:28:04.766Z,21.70
2022-08-11T22:30:50.971Z,21.70
2022-08-11T22:33:37.689Z,21.60
2022-08-11T22:36:45.935Z,20.90
2022-08-11T22:39:35.378Z,21.60
2022-08-11T22:42:21.664Z,22.20
2022-08-11T22:45:19.166Z,22.00
2022-08-11T22:48:07.869Z,22.30
2022-08-11T22:50:55.120Z,21.80
2022-08-11T22:53:57.545Z,22.00
2022-08-11T22:56:45.668Z,21.30
2022-08-11T22:59:33.176Z,21.40
2022-08-11T23:02:19.923Z,20.80
2022-08-11T23:05:07.189Z,21.50
2022-08-11T23:07:54.375Z,21.90
2022-08-11T23:10:42.486Z,22.20
2022-08-11T23:13:28.933Z,22.60
2022-08-11T23:16:15.380Z,22.90
2022-08-11T23:19:01.463Z,23.00
2022-08-11T23:21:48.295Z,23.30
2022-08-11T23:24:35.421Z,23.70
2022-08-11T23:27:24.511Z,24.10
2022-08-11T23:30:13.892Z,23.40
2022-08-11T23:33:05.285Z,23.60
2022-08-11T23:35:54.927Z,23.80
2022-08-11T23:38:43.766Z,23.90
2022-08-11T23:41:32.149Z,24.10
2022-08-11T23:44:20.218Z,24.90
2022-08-11T23:47:08.167Z,25.40
2022-08-11T23:49:55.110Z,25.90
2022-08-11T23:52:42.476Z,25.60
2022-08-11T23:55:28.752Z,25.40
2022-08-11T23:58:14.528Z,25.10
